Stations météo

réclame
Mon MeteoGroup
La Molina, Espagne (8117): Température de l'air & dewpoint: 01.08.2020 23:00:00 - 07.08.2020 23:00:00 (CEST)La Molina, Espagne (8117): Vitesse du vent & gusts: 01.08.2020 23:00:00 - 07.08.2020 23:00:00 (CEST)La Molina, Espagne (8117): Direction du vent: 01.08.2020 23:00:00 - 07.08.2020 23:00:00 (CEST)La Molina, Espagne (8117): visibility: 01.08.2020 23:00:00 - 07.08.2020 23:00:00 (CEST)La Molina, Espagne (8117): Ensoleillement: 01.08.2020 23:00:00 - 07.08.2020 23:00:00 (CEST)La Molina, Espagne (8117): Quantités de précipitations: 01.08.2020 23:00:00 - 07.08.2020 23:00:00 (CEST)
Date & Time tt [°C] td [°C] ff [km/h] ff [knt] fx [km/h] fx [knt] dd vv [km] sd [min] rr [mm]
07.08.2020 23:00:00 18,3 9,9 6 3 9 5 ESE 20 0 0,0
07.08.2020 22:00:00 20,7 11,9 4 2 25 14 ENE 19 0 0,0
07.08.2020 21:00:00 21,8 12,6 15 8 29 16 S 20 13 0,0
07.08.2020 20:00:00 24,9 12,8 11 6 23 12 S 20 58 -
07.08.2020 19:00:00 26,0 11,3 15 8 27 14 SSE 20 58 0,0
07.08.2020 18:00:00 27,0 11,4 6 3 24 13 SSE 20 49 0,0
07.08.2020 17:00:00 26,3 12,7 8 4 26 14 SE 20 34 0,0
07.08.2020 16:00:00 27,7 13,9 11 6 29 16 S 20 57 0,0
07.08.2020 15:00:00 27,9 13,1 6 3 24 13 SE 20 40 0,0
07.08.2020 14:00:00 27,3 6,7 10 6 23 13 WNW 20 53 -
07.08.2020 13:00:00 26,4 7,8 5 3 15 8 NNW 8 60 0,0
07.08.2020 12:00:00 25,0 12,5 7 4 13 7 NNW 19 60 0,0
07.08.2020 11:00:00 22,7 12,0 5 3 10 5 NW 20 60 0,0
07.08.2020 10:00:00 21,1 11,4 3 1 10 5 NNE 20 60 0,0
07.08.2020 09:00:00 18,6 10,4 1 0 6 3 NW 20 54 0,0
07.08.2020 08:00:00 14,8 8,9 3 1 10 6 ENE 20 0 -
07.08.2020 07:00:00 14,2 8,7 6 3 10 6 SE 20 0 0,0
07.08.2020 06:00:00 14,7 8,7 6 4 10 5 ESE 20 0 0,0
07.08.2020 05:00:00 15,5 8,7 4 2 9 5 E 20 0 0,0
07.08.2020 04:00:00 15,2 8,9 6 3 10 5 ESE 20 0 0,0
07.08.2020 03:00:00 15,7 9,2 6 4 10 5 SE 20 0 0,0
07.08.2020 02:00:00 16,4 8,4 5 3 10 6 ESE 20 0 -
07.08.2020 01:00:00 16,3 9,0 8 5 11 6 ESE 20 0 0,0
07.08.2020 00:00:00 16,5 8,9 7 4 10 5 S 20 0 0,0
06.08.2020 23:00:00 17,5 11,1 5 3 9 5 S 20 0 0,0
06.08.2020 22:00:00 17,9 11,7 6 3 9 5 ESE 20 0 0,0
06.08.2020 21:00:00 20,3 12,0 4 2 18 10 SE 20 15 0,0
06.08.2020 20:00:00 24,4 12,0 10 6 29 16 S 20 60 -
06.08.2020 19:00:00 25,5 11,7 13 7 29 16 SSW 20 60 0,0
06.08.2020 18:00:00 26,1 11,8 11 6 26 14 SSW 20 60 0,0
06.08.2020 17:00:00 26,3 13,1 11 6 25 13 S 20 60 0,0
06.08.2020 16:00:00 26,4 13,2 10 5 23 12 SSW 20 60 0,0
06.08.2020 15:00:00 26,1 11,8 10 5 24 13 SSW 20 60 0,0
06.08.2020 14:00:00 25,3 7,0 10 5 18 10 NW 20 60 -
06.08.2020 13:00:00 23,9 8,3 6 3 11 6 NNW 6 60 0,0
06.08.2020 12:00:00 21,9 7,7 6 3 10 5 NNW 20 60 0,0
06.08.2020 11:00:00 20,3 5,9 4 2 8 4 NW 20 60 0,0
06.08.2020 10:00:00 18,8 5,0 4 2 6 3 NW 20 60 0,0
06.08.2020 09:00:00 16,0 5,0 2 1 6 3 ESE 20 56 0,0
06.08.2020 08:00:00 11,6 3,6 4 2 10 5 ESE 20 0 -
06.08.2020 07:00:00 12,0 2,7 5 3 11 6 ESE 20 0 0,0
06.08.2020 06:00:00 11,5 1,5 7 4 10 6 ESE 20 0 0,0
06.08.2020 05:00:00 12,1 0,9 6 3 11 6 ESE 20 0 0,0
06.08.2020 04:00:00 12,3 0,6 6 3 10 6 SE 20 0 0,0
06.08.2020 03:00:00 12,2 1,5 8 5 10 5 ESE 20 0 0,0
06.08.2020 02:00:00 12,7 4,5 6 3 10 5 ESE 20 0 -
06.08.2020 01:00:00 13,1 5,0 5 3 10 6 SE 20 0 0,0
06.08.2020 00:00:00 13,6 8,4 6 3 9 5 SE 20 0 0,0
05.08.2020 23:00:00 14,1 8,1 7 4 10 5 ESE 20 0 0,0
05.08.2020 22:00:00 15,2 9,6 4 2 7 4 ESE 20 0 0,0
05.08.2020 21:00:00 18,5 10,5 3 2 16 9 ENE 20 16 0,0
05.08.2020 20:00:00 22,8 10,3 9 5 18 10 SSW 20 60 -
05.08.2020 19:00:00 23,6 11,0 4 2 24 13 NNW 20 60 0,0
05.08.2020 18:00:00 23,8 12,1 12 6 24 13 S 20 60 0,0
05.08.2020 17:00:00 23,4 13,6 9 5 27 14 E 20 60 0,0
05.08.2020 16:00:00 24,1 12,1 6 3 22 12 NE 20 60 0,0
05.08.2020 15:00:00 23,9 5,8 8 4 21 12 NNW 20 60 0,0
05.08.2020 14:00:00 23,1 -0,5 9 5 18 10 WNW 20 60 -
05.08.2020 13:00:00 22,0 1,7 5 3 16 8 NW 20 60 0,0
05.08.2020 12:00:00 20,6 -2,0 7 4 16 9 NW 20 60 0,0
05.08.2020 11:00:00 18,9 -2,2 5 3 11 6 WNW 20 60 0,0
05.08.2020 10:00:00 16,9 -0,7 6 3 10 6 NNW 20 60 0,0
05.08.2020 09:00:00 13,1 -1,0 4 2 8 4 SE 20 57 0,0
05.08.2020 08:00:00 9,3 -1,7 5 3 9 5 E 20 0 -
05.08.2020 07:00:00 8,0 -1,4 6 3 11 6 SE 20 0 0,0
05.08.2020 06:00:00 7,8 1,9 6 3 9 5 SSE 20 0 0,0
05.08.2020 05:00:00 8,5 3,9 4 2 8 5 SSE 20 0 0,0
05.08.2020 04:00:00 8,8 4,5 5 3 9 5 SSE 20 0 0,0
05.08.2020 03:00:00 9,0 4,5 4 2 9 5 SE 20 0 0,0
05.08.2020 02:00:00 9,6 5,0 6 3 9 5 ESE 20 0 -
05.08.2020 01:00:00 9,7 8,0 5 3 8 4 S 20 0 0,0
05.08.2020 00:00:00 10,7 7,7 5 3 15 8 SSE 20 0 0,0
04.08.2020 23:00:00 12,6 8,3 12 7 17 9 SE 20 0 0,0
04.08.2020 22:00:00 12,5 7,6 3 1 8 4 SSE 20 0 0,0
04.08.2020 21:00:00 15,4 7,4 5 3 20 11 SSW 20 17 0,0
04.08.2020 20:00:00 18,9 9,4 12 6 26 14 S 20 60 -
04.08.2020 19:00:00 20,3 8,7 10 5 23 12 S 20 60 0,0
04.08.2020 18:00:00 21,2 3,4 9 5 24 13 N 20 60 0,0
04.08.2020 17:00:00 21,1 2,9 10 5 26 14 NNW 20 60 0,0
04.08.2020 16:00:00 20,7 0,4 13 7 28 15 WNW 20 60 0,0
04.08.2020 15:00:00 20,0 2,9 12 7 25 13 NNW 20 60 0,0
04.08.2020 14:00:00 18,9 1,5 11 6 25 13 N 20 60 -
04.08.2020 13:00:00 17,6 1,5 11 6 29 15 NW 20 60 0,0
04.08.2020 12:00:00 15,6 1,4 14 7 - - NW 20 - -
04.08.2020 11:00:00 13,7 2,3 10 5 20 11 NW 20 60 0,0
04.08.2020 10:00:00 12,5 2,7 9 5 18 10 WNW 20 60 0,0
04.08.2020 09:00:00 11,1 2,7 8 4 16 9 WNW 20 58 0,0
04.08.2020 08:00:00 8,1 2,7 4 2 16 9 ENE 20 0 -
04.08.2020 07:00:00 7,7 3,2 10 5 15 8 SSW 20 0 0,0
04.08.2020 06:00:00 8,2 3,4 8 5 14 8 SSW 20 0 0,0
04.08.2020 05:00:00 8,4 3,4 8 4 16 9 SSW 20 0 0,0
04.08.2020 04:00:00 9,2 3,6 8 5 16 8 SSW 20 0 0,0
04.08.2020 03:00:00 9,5 3,6 8 4 18 10 SW 20 0 0,0
04.08.2020 02:00:00 9,9 4,3 7 4 17 9 SW 20 0 -
04.08.2020 01:00:00 10,7 4,6 3 2 13 7 SW 20 0 0,0
04.08.2020 00:00:00 10,5 4,8 6 3 16 9 S 20 0 0,0
03.08.2020 23:00:00 11,5 5,0 9 5 16 9 WSW 20 0 0,0
03.08.2020 22:00:00 12,9 6,1 6 3 13 7 WSW 20 0 0,0
03.08.2020 21:00:00 14,2 6,5 4 2 10 6 ENE 20 0 0,0
03.08.2020 20:00:00 15,7 6,7 4 2 22 12 NW 20 20 -
03.08.2020 19:00:00 16,7 9,7 10 6 25 13 S 20 30 0,0
03.08.2020 18:00:00 16,9 10,3 6 4 20 11 SSW 20 16 0,0
03.08.2020 17:00:00 17,1 10,3 7 4 30 16 SSW 20 18 0,0
03.08.2020 16:00:00 16,6 10,6 19 10 32 18 SE 20 24 0,0
03.08.2020 15:00:00 17,5 11,1 11 6 37 20 SSE 20 26 0,0
03.08.2020 14:00:00 19,6 8,3 8 5 26 14 NNW 20 58 -
03.08.2020 13:00:00 19,1 8,7 10 5 25 13 NW 20 60 0,0
03.08.2020 12:00:00 17,8 9,4 11 6 18 10 NNW 20 60 0,0
03.08.2020 11:00:00 16,4 8,7 4 2 12 6 WNW 20 60 0,0
03.08.2020 10:00:00 13,9 8,3 3 1 13 7 WNW 20 45 0,0
03.08.2020 09:00:00 13,0 8,1 4 2 12 7 WNW 20 50 0,0
03.08.2020 08:00:00 11,0 8,9 4 2 9 5 NW 20 0 -
03.08.2020 07:00:00 11,4 9,3 9 5 22 12 ESE 20 0 0,0
03.08.2020 06:00:00 11,4 9,7 5 3 14 8 SE 20 0 0,0
03.08.2020 05:00:00 11,3 9,9 2 1 10 5 SSE 20 0 0,0
03.08.2020 04:00:00 11,4 9,9 3 2 6 3 NNE 20 0 0,0
03.08.2020 03:00:00 11,7 10,3 3 1 8 4 SSE 20 0 0,0
03.08.2020 02:00:00 12,4 10,3 2 1 13 7 ENE 20 0 -
03.08.2020 01:00:00 14,4 10,0 4 2 28 15 E 20 0 0,0
03.08.2020 00:00:00 15,6 11,0 13 7 25 14 S 20 0 0,0
02.08.2020 23:00:00 16,1 12,1 13 7 28 15 S 20 0 0,0
02.08.2020 22:00:00 16,7 11,8 16 9 28 15 SSE 20 0 0,0
02.08.2020 21:00:00 17,9 11,7 10 5 23 12 SSW 20 0 0,0
02.08.2020 20:00:00 19,1 11,1 8 4 23 12 SSW 20 0 -
02.08.2020 19:00:00 20,0 12,5 11 6 32 17 ESE 20 12 0,0
02.08.2020 18:00:00 19,7 12,0 17 9 33 18 SE 20 20 0,0
02.08.2020 17:00:00 20,8 12,7 12 7 39 21 SE 20 56 0,0
02.08.2020 16:00:00 21,1 14,7 18 10 36 19 ESE 20 59 0,0
02.08.2020 15:00:00 22,5 14,0 13 7 29 16 SSW 20 60 0,0
02.08.2020 14:00:00 23,0 12,6 16 9 31 17 SSW 20 60 -
02.08.2020 13:00:00 23,1 11,2 17 9 30 16 S 20 60 0,0
02.08.2020 12:00:00 22,0 9,8 9 5 25 13 NNW 20 54 0,0
02.08.2020 11:00:00 21,0 9,6 14 8 31 17 NNW 20 60 0,0
02.08.2020 10:00:00 20,5 8,1 9 5 22 12 NW 20 60 0,0
02.08.2020 09:00:00 17,1 11,1 3 1 11 6 NNE 20 60 0,0
02.08.2020 08:00:00 13,2 10,4 4 2 8 4 SSE 20 1 -
02.08.2020 07:00:00 13,2 9,4 3 2 10 5 SSE 20 0 0,0
02.08.2020 06:00:00 13,2 9,8 3 2 7 4 SSE 20 0 0,0
02.08.2020 05:00:00 13,5 10,5 3 2 6 4 ESE 20 0 0,0
02.08.2020 04:00:00 15,2 10,6 1 1 11 6 N 20 0 0,0
02.08.2020 03:00:00 17,6 11,9 5 3 26 14 SSW 19 0 0,0
02.08.2020 02:00:00 17,5 12,0 14 7 25 13 SSE 20 0 -
02.08.2020 01:00:00 15,6 11,0 5 3 8 5 SE 20 0 0,0
02.08.2020 00:00:00 16,2 12,0 5 3 8 4 SSE 20 0 0,0
01.08.2020 23:00:00 17,1 12,6 7 4 16 9 S 20 0 0,0

tt = Température de l'air
td = dewpoint
ff = Vitesse du vent
fx = gusts
dd = Direction du vent
vv = visibility
sd = Ensoleillement
rr = Quantités de précipitations

stations d'obs. à proximité